sensor_id;sensor_type;location;lat;lon;timestamp;temperature;humidity
2851;DHT22;1433;49.976;8.342;2024-01-16T00:00:02;0.40;1.00
2851;DHT22;1433;49.976;8.342;2024-01-16T00:02:30;0.50;99.90
2851;DHT22;1433;49.976;8.342;2024-01-16T00:04:56;0.50;99.90
2851;DHT22;1433;49.976;8.342;2024-01-16T00:07:22;0.50;99.90
2851;DHT22;1433;49.976;8.342;2024-01-16T00:09:48;0.50;99.90
2851;DHT22;1433;49.976;8.342;2024-01-16T00:12:16;0.50;99.90
2851;DHT22;1433;49.976;8.342;2024-01-16T00:14:43;0.50;99.90
2851;DHT22;1433;49.976;8.342;2024-01-16T00:17:09;0.50;99.90
2851;DHT22;1433;49.976;8.342;2024-01-16T00:19:35;0.50;99.90
2851;DHT22;1433;49.976;8.342;2024-01-16T00:22:01;0.50;99.90
2851;DHT22;1433;49.976;8.342;2024-01-16T00:24:29;0.60;99.90
2851;DHT22;1433;49.976;8.342;2024-01-16T00:26:55;0.60;99.90
2851;DHT22;1433;49.976;8.342;2024-01-16T00:29:22;0.60;99.90
2851;DHT22;1433;49.976;8.342;2024-01-16T00:31:48;0.60;99.90
2851;DHT22;1433;49.976;8.342;2024-01-16T00:34:14;0.60;99.90
2851;DHT22;1433;49.976;8.342;2024-01-16T00:36:40;0.60;99.90
2851;DHT22;1433;49.976;8.342;2024-01-16T00:39:06;0.50;99.90
2851;DHT22;1433;49.976;8.342;2024-01-16T00:41:34;0.50;99.90
2851;DHT22;1433;49.976;8.342;2024-01-16T00:44:00;0.50;99.90
2851;DHT22;1433;49.976;8.342;2024-01-16T00:46:26;0.40;99.90
2851;DHT22;1433;49.976;8.342;2024-01-16T00:48:52;0.40;1.00
2851;DHT22;1433;49.976;8.342;2024-01-16T00:51:18;0.30;1.00
2851;DHT22;1433;49.976;8.342;2024-01-16T00:53:44;0.30;1.00
2851;DHT22;1433;49.976;8.342;2024-01-16T00:56:10;0.30;1.00
2851;DHT22;1433;49.976;8.342;2024-01-16T00:58:38;0.30;1.00
2851;DHT22;1433;49.976;8.342;2024-01-16T01:01:04;0.20;1.00
2851;DHT22;1433;49.976;8.342;2024-01-16T01:03:31;0.20;1.00
2851;DHT22;1433;49.976;8.342;2024-01-16T01:05:57;0.20;1.00
2851;DHT22;1433;49.976;8.342;2024-01-16T01:08:24;0.10;1.00
2851;DHT22;1433;49.976;8.342;2024-01-16T01:10:50;0.20;1.00
2851;DHT22;1433;49.976;8.342;2024-01-16T01:13:16;0.20;1.00
2851;DHT22;1433;49.976;8.342;2024-01-16T01:15:42;0.20;1.00
2851;DHT22;1433;49.976;8.342;2024-01-16T01:18:08;0.20;1.00
2851;DHT22;1433;49.976;8.342;2024-01-16T01:20:35;0.20;1.00
2851;DHT22;1433;49.976;8.342;2024-01-16T01:23:01;0.20;1.00
2851;DHT22;1433;49.976;8.342;2024-01-16T01:25:27;0.20;1.00
2851;DHT22;1433;49.976;8.342;2024-01-16T01:27:53;0.30;1.00
2851;DHT22;1433;49.976;8.342;2024-01-16T01:30:19;0.30;1.00
2851;DHT22;1433;49.976;8.342;2024-01-16T01:32:45;0.30;1.00
2851;DHT22;1433;49.976;8.342;2024-01-16T01:35:11;0.30;1.00
2851;DHT22;1433;49.976;8.342;2024-01-16T01:37:38;0.20;1.00
2851;DHT22;1433;49.976;8.342;2024-01-16T01:40:05;0.20;1.00
2851;DHT22;1433;49.976;8.342;2024-01-16T01:42:31;0.10;1.00
2851;DHT22;1433;49.976;8.342;2024-01-16T01:44:57;0.10;1.00
2851;DHT22;1433;49.976;8.342;2024-01-16T01:47:24;0.10;1.00
2851;DHT22;1433;49.976;8.342;2024-01-16T01:49:51;0.10;1.00
2851;DHT22;1433;49.976;8.342;2024-01-16T01:52:18;0.10;1.00
2851;DHT22;1433;49.976;8.342;2024-01-16T01:54:44;0.10;1.00
2851;DHT22;1433;49.976;8.342;2024-01-16T01:57:11;0.00;1.00
2851;DHT22;1433;49.976;8.342;2024-01-16T01:59:37;0.10;1.00
2851;DHT22;1433;49.976;8.342;2024-01-16T02:02:04;0.10;1.00
2851;DHT22;1433;49.976;8.342;2024-01-16T02:04:32;0.00;1.00
2851;DHT22;1433;49.976;8.342;2024-01-16T02:07:00;0.00;1.00
2851;DHT22;1433;49.976;8.342;2024-01-16T02:09:26;0.00;1.00
2851;DHT22;1433;49.976;8.342;2024-01-16T02:11:52;0.10;1.00
2851;DHT22;1433;49.976;8.342;2024-01-16T02:14:18;0.10;1.00
2851;DHT22;1433;49.976;8.342;2024-01-16T02:16:45;0.10;1.00
2851;DHT22;1433;49.976;8.342;2024-01-16T02:19:11;0.20;1.00
2851;DHT22;1433;49.976;8.342;2024-01-16T02:21:48;0.10;1.00
2851;DHT22;1433;49.976;8.342;2024-01-16T02:24:15;0.10;1.00
2851;DHT22;1433;49.976;8.342;2024-01-16T02:26:43;0.20;1.00
2851;DHT22;1433;49.976;8.342;2024-01-16T02:29:09;0.20;1.00
2851;DHT22;1433;49.976;8.342;2024-01-16T02:31:35;0.20;1.00
2851;DHT22;1433;49.976;8.342;2024-01-16T02:34:02;0.30;99.90
2851;DHT22;1433;49.976;8.342;2024-01-16T02:36:30;0.30;99.90
2851;DHT22;1433;49.976;8.342;2024-01-16T02:39:04;0.30;99.90
2851;DHT22;1433;49.976;8.342;2024-01-16T02:41:32;0.30;99.90
2851;DHT22;1433;49.976;8.342;2024-01-16T02:43:58;0.30;99.90
2851;DHT22;1433;49.976;8.342;2024-01-16T02:46:24;0.30;99.90
2851;DHT22;1433;49.976;8.342;2024-01-16T02:48:50;0.40;99.90
2851;DHT22;1433;49.976;8.342;2024-01-16T02:51:17;0.30;99.90
2851;DHT22;1433;49.976;8.342;2024-01-16T02:53:43;0.30;99.90
2851;DHT22;1433;49.976;8.342;2024-01-16T02:56:09;0.40;99.90
2851;DHT22;1433;49.976;8.342;2024-01-16T02:58:36;0.40;99.90
2851;DHT22;1433;49.976;8.342;2024-01-16T03:01:02;0.50;99.90
2851;DHT22;1433;49.976;8.342;2024-01-16T03:03:29;0.50;99.90
2851;DHT22;1433;49.976;8.342;2024-01-16T03:05:55;0.50;90.60
2851;DHT22;1433;49.976;8.342;2024-01-16T03:08:21;0.50;1.00
2851;DHT22;1433;49.976;8.342;2024-01-16T03:10:48;0.60;1.00
2851;DHT22;1433;49.976;8.342;2024-01-16T03:13:15;0.60;1.00
2851;DHT22;1433;49.976;8.342;2024-01-16T03:15:41;0.60;1.00
2851;DHT22;1433;49.976;8.342;2024-01-16T03:18:07;0.60;1.00
2851;DHT22;1433;49.976;8.342;2024-01-16T03:20:34;0.50;1.00
2851;DHT22;1433;49.976;8.342;2024-01-16T03:23:00;0.30;99.90
2851;DHT22;1433;49.976;8.342;2024-01-16T03:25:26;0.10;99.90
2851;DHT22;1433;49.976;8.342;2024-01-16T03:27:52;0.00;1.00
2851;DHT22;1433;49.976;8.342;2024-01-16T03:30:19;-0.10;1.00
2851;DHT22;1433;49.976;8.342;2024-01-16T03:32:45;-0.10;1.00
2851;DHT22;1433;49.976;8.342;2024-01-16T03:35:11;-0.10;1.00
2851;DHT22;1433;49.976;8.342;2024-01-16T03:37:38;-0.20;1.00
2851;DHT22;1433;49.976;8.342;2024-01-16T03:40:05;-0.20;1.00
2851;DHT22;1433;49.976;8.342;2024-01-16T03:42:33;-0.20;1.00
2851;DHT22;1433;49.976;8.342;2024-01-16T03:44:59;-0.20;1.00
2851;DHT22;1433;49.976;8.342;2024-01-16T03:47:25;-0.20;1.00
2851;DHT22;1433;49.976;8.342;2024-01-16T03:49:52;-0.20;1.00
2851;DHT22;1433;49.976;8.342;2024-01-16T03:52:18;-0.30;1.00
2851;DHT22;1433;49.976;8.342;2024-01-16T03:54:44;-0.30;1.00
2851;DHT22;1433;49.976;8.342;2024-01-16T03:57:11;-0.30;1.00
2851;DHT22;1433;49.976;8.342;2024-01-16T03:59:37;-0.20;1.00
2851;DHT22;1433;49.976;8.342;2024-01-16T04:02:04;-0.20;1.00
2851;DHT22;1433;49.976;8.342;2024-01-16T04:04:30;-0.20;1.00
2851;DHT22;1433;49.976;8.342;2024-01-16T04:06:56;-0.10;1.00
2851;DHT22;1433;49.976;8.342;2024-01-16T04:09:22;-0.10;1.00
2851;DHT22;1433;49.976;8.342;2024-01-16T04:11:52;-0.20;1.00
2851;DHT22;1433;49.976;8.342;2024-01-16T04:14:18;-0.20;1.00
2851;DHT22;1433;49.976;8.342;2024-01-16T04:16:45;-0.20;1.00
2851;DHT22;1433;49.976;8.342;2024-01-16T04:19:11;-0.20;1.00
2851;DHT22;1433;49.976;8.342;2024-01-16T04:21:37;-0.30;1.00
2851;DHT22;1433;49.976;8.342;2024-01-16T04:24:04;-0.30;1.00
2851;DHT22;1433;49.976;8.342;2024-01-16T04:26:31;-0.30;1.00
2851;DHT22;1433;49.976;8.342;2024-01-16T04:28:57;-0.30;1.00
2851;DHT22;1433;49.976;8.342;2024-01-16T04:31:25;-0.40;1.00
2851;DHT22;1433;49.976;8.342;2024-01-16T04:33:51;-0.40;1.00
2851;DHT22;1433;49.976;8.342;2024-01-16T04:36:17;-0.40;1.00
2851;DHT22;1433;49.976;8.342;2024-01-16T04:38:43;-0.20;1.00
2851;DHT22;1433;49.976;8.342;2024-01-16T04:41:09;-0.20;1.00
2851;DHT22;1433;49.976;8.342;2024-01-16T04:43:36;-0.20;1.00
2851;DHT22;1433;49.976;8.342;2024-01-16T04:46:02;-0.10;1.00
2851;DHT22;1433;49.976;8.342;2024-01-16T04:48:29;-0.10;1.00
2851;DHT22;1433;49.976;8.342;2024-01-16T04:50:55;-0.10;1.00
2851;DHT22;1433;49.976;8.342;2024-01-16T04:53:21;-0.10;1.00
2851;DHT22;1433;49.976;8.342;2024-01-16T04:55:47;-0.10;1.00
2851;DHT22;1433;49.976;8.342;2024-01-16T04:58:13;-0.10;1.00
2851;DHT22;1433;49.976;8.342;2024-01-16T05:00:40;-0.10;1.00
2851;DHT22;1433;49.976;8.342;2024-01-16T05:03:06;-0.10;1.00
2851;DHT22;1433;49.976;8.342;2024-01-16T05:05:32;-0.20;1.00
2851;DHT22;1433;49.976;8.342;2024-01-16T05:08:00;-0.30;1.00
2851;DHT22;1433;49.976;8.342;2024-01-16T05:10:26;-0.40;1.00
2851;DHT22;1433;49.976;8.342;2024-01-16T05:12:53;-0.40;1.00
2851;DHT22;1433;49.976;8.342;2024-01-16T05:15:19;-0.40;1.00
2851;DHT22;1433;49.976;8.342;2024-01-16T05:17:46;-0.50;1.00
2851;DHT22;1433;49.976;8.342;2024-01-16T05:20:12;-0.50;1.00
2851;DHT22;1433;49.976;8.342;2024-01-16T05:22:38;-0.50;1.00
2851;DHT22;1433;49.976;8.342;2024-01-16T05:25:05;-0.60;1.00
2851;DHT22;1433;49.976;8.342;2024-01-16T05:27:33;-0.60;1.00
2851;DHT22;1433;49.976;8.342;2024-01-16T05:29:59;-0.60;1.00
2851;DHT22;1433;49.976;8.342;2024-01-16T05:32:26;-0.60;1.00
2851;DHT22;1433;49.976;8.342;2024-01-16T05:34:53;-0.50;1.00
2851;DHT22;1433;49.976;8.342;2024-01-16T05:37:19;-0.50;1.00
2851;DHT22;1433;49.976;8.342;2024-01-16T05:39:46;-0.50;1.00
2851;DHT22;1433;49.976;8.342;2024-01-16T05:42:12;-0.50;1.00
2851;DHT22;1433;49.976;8.342;2024-01-16T05:44:38;-0.40;1.00
2851;DHT22;1433;49.976;8.342;2024-01-16T05:47:04;-0.50;1.00
2851;DHT22;1433;49.976;8.342;2024-01-16T05:49:31;-0.50;1.00
2851;DHT22;1433;49.976;8.342;2024-01-16T05:51:58;-0.50;1.00
2851;DHT22;1433;49.976;8.342;2024-01-16T05:54:24;-0.60;1.00
2851;DHT22;1433;49.976;8.342;2024-01-16T05:56:50;-0.60;1.00
2851;DHT22;1433;49.976;8.342;2024-01-16T05:59:16;-0.70;1.00
2851;DHT22;1433;49.976;8.342;2024-01-16T06:01:42;-0.70;1.00
2851;DHT22;1433;49.976;8.342;2024-01-16T06:04:08;-0.80;57.80
2851;DHT22;1433;49.976;8.342;2024-01-16T06:06:34;-0.80;99.90
2851;DHT22;1433;49.976;8.342;2024-01-16T06:09:02;-0.90;99.90
2851;DHT22;1433;49.976;8.342;2024-01-16T06:11:31;-1.00;99.90
2851;DHT22;1433;49.976;8.342;2024-01-16T06:13:58;-1.10;99.90
2851;DHT22;1433;49.976;8.342;2024-01-16T06:16:25;-1.20;99.90
2851;DHT22;1433;49.976;8.342;2024-01-16T06:18:51;-1.20;99.90
2851;DHT22;1433;49.976;8.342;2024-01-16T06:21:17;-1.30;99.90
2851;DHT22;1433;49.976;8.342;2024-01-16T06:23:44;-1.40;99.90
2851;DHT22;1433;49.976;8.342;2024-01-16T06:26:10;-1.40;99.90
2851;DHT22;1433;49.976;8.342;2024-01-16T06:28:36;-1.50;99.90
2851;DHT22;1433;49.976;8.342;2024-01-16T06:31:02;-1.50;99.90
2851;DHT22;1433;49.976;8.342;2024-01-16T06:33:29;-1.50;99.90
2851;DHT22;1433;49.976;8.342;2024-01-16T06:35:55;-1.50;99.90
2851;DHT22;1433;49.976;8.342;2024-01-16T06:38:21;-1.60;99.90
2851;DHT22;1433;49.976;8.342;2024-01-16T06:40:47;-1.70;99.90
2851;DHT22;1433;49.976;8.342;2024-01-16T06:43:14;-1.70;99.90
2851;DHT22;1433;49.976;8.342;2024-01-16T06:45:42;-1.80;99.90
2851;DHT22;1433;49.976;8.342;2024-01-16T06:48:08;-1.80;99.90
2851;DHT22;1433;49.976;8.342;2024-01-16T06:50:34;-1.90;99.90
2851;DHT22;1433;49.976;8.342;2024-01-16T06:53:01;-1.90;99.90
2851;DHT22;1433;49.976;8.342;2024-01-16T06:55:27;-1.80;99.90
2851;DHT22;1433;49.976;8.342;2024-01-16T06:57:56;-1.80;99.90
2851;DHT22;1433;49.976;8.342;2024-01-16T07:00:23;-1.70;99.90
2851;DHT22;1433;49.976;8.342;2024-01-16T07:02:51;-1.70;99.90
2851;DHT22;1433;49.976;8.342;2024-01-16T07:05:18;-1.70;99.90
2851;DHT22;1433;49.976;8.342;2024-01-16T07:07:44;-1.60;99.90
2851;DHT22;1433;49.976;8.342;2024-01-16T07:10:13;-1.60;99.90
2851;DHT22;1433;49.976;8.342;2024-01-16T07:12:45;-1.70;99.90
2851;DHT22;1433;49.976;8.342;2024-01-16T07:15:13;-1.80;99.90
2851;DHT22;1433;49.976;8.342;2024-01-16T07:17:39;-1.80;99.90
2851;DHT22;1433;49.976;8.342;2024-01-16T07:20:06;-1.80;99.90
2851;DHT22;1433;49.976;8.342;2024-01-16T07:22:33;-1.80;99.90
2851;DHT22;1433;49.976;8.342;2024-01-16T07:25:00;-1.80;99.90
2851;DHT22;1433;49.976;8.342;2024-01-16T07:27:26;-1.80;99.90
2851;DHT22;1433;49.976;8.342;2024-01-16T07:29:52;-1.70;99.90
2851;DHT22;1433;49.976;8.342;2024-01-16T07:32:18;-1.70;99.90
2851;DHT22;1433;49.976;8.342;2024-01-16T07:34:44;-1.60;99.90
2851;DHT22;1433;49.976;8.342;2024-01-16T07:37:11;-1.50;99.90
2851;DHT22;1433;49.976;8.342;2024-01-16T07:39:37;-1.50;99.90
2851;DHT22;1433;49.976;8.342;2024-01-16T07:42:04;-1.50;71.10
2851;DHT22;1433;49.976;8.342;2024-01-16T07:44:30;-1.50;17.30
2851;DHT22;1433;49.976;8.342;2024-01-16T07:46:56;-1.50;1.00
2851;DHT22;1433;49.976;8.342;2024-01-16T07:49:31;-1.40;1.00
2851;DHT22;1433;49.976;8.342;2024-01-16T07:51:57;-1.40;1.00
2851;DHT22;1433;49.976;8.342;2024-01-16T07:54:23;-1.40;1.00
2851;DHT22;1433;49.976;8.342;2024-01-16T07:56:50;-1.30;1.00
2851;DHT22;1433;49.976;8.342;2024-01-16T07:59:16;-1.30;1.00
2851;DHT22;1433;49.976;8.342;2024-01-16T08:01:43;-1.40;1.00
2851;DHT22;1433;49.976;8.342;2024-01-16T08:04:10;-1.30;1.00
2851;DHT22;1433;49.976;8.342;2024-01-16T08:06:36;-1.30;1.00
2851;DHT22;1433;49.976;8.342;2024-01-16T08:09:02;-1.30;1.00
2851;DHT22;1433;49.976;8.342;2024-01-16T08:11:28;-1.20;1.00
2851;DHT22;1433;49.976;8.342;2024-01-16T08:13:55;-1.20;1.00
2851;DHT22;1433;49.976;8.342;2024-01-16T08:16:21;-1.20;1.00
2851;DHT22;1433;49.976;8.342;2024-01-16T08:18:48;-1.10;1.00
2851;DHT22;1433;49.976;8.342;2024-01-16T08:21:14;-1.10;1.00
2851;DHT22;1433;49.976;8.342;2024-01-16T08:23:40;-1.10;1.00
2851;DHT22;1433;49.976;8.342;2024-01-16T08:26:06;-1.00;1.00
2851;DHT22;1433;49.976;8.342;2024-01-16T08:28:32;-1.00;1.00
2851;DHT22;1433;49.976;8.342;2024-01-16T08:30:59;-1.00;1.00
2851;DHT22;1433;49.976;8.342;2024-01-16T08:33:25;-0.90;1.00
2851;DHT22;1433;49.976;8.342;2024-01-16T08:35:51;-0.80;1.00
2851;DHT22;1433;49.976;8.342;2024-01-16T08:38:17;-0.70;1.00
2851;DHT22;1433;49.976;8.342;2024-01-16T08:40:43;-0.70;1.00
2851;DHT22;1433;49.976;8.342;2024-01-16T08:43:09;-0.60;1.00
2851;DHT22;1433;49.976;8.342;2024-01-16T08:45:35;-0.50;1.00
2851;DHT22;1433;49.976;8.342;2024-01-16T08:48:02;-0.40;1.00
2851;DHT22;1433;49.976;8.342;2024-01-16T08:50:28;-0.30;99.90
2851;DHT22;1433;49.976;8.342;2024-01-16T08:52:55;-0.20;99.90
2851;DHT22;1433;49.976;8.342;2024-01-16T08:55:21;-0.20;99.90
2851;DHT22;1433;49.976;8.342;2024-01-16T08:57:47;-0.10;18.90
2851;DHT22;1433;49.976;8.342;2024-01-16T09:00:14;0.00;1.00
2851;DHT22;1433;49.976;8.342;2024-01-16T09:02:41;0.10;1.00
2851;DHT22;1433;49.976;8.342;2024-01-16T09:05:07;0.20;1.00
2851;DHT22;1433;49.976;8.342;2024-01-16T09:07:34;0.30;1.00
2851;DHT22;1433;49.976;8.342;2024-01-16T09:10:00;0.30;99.90
2851;DHT22;1433;49.976;8.342;2024-01-16T09:12:27;0.20;1.00
2851;DHT22;1433;49.976;8.342;2024-01-16T09:14:53;0.30;1.00
2851;DHT22;1433;49.976;8.342;2024-01-16T09:17:19;0.20;1.00
2851;DHT22;1433;49.976;8.342;2024-01-16T09:19:46;0.30;1.00
2851;DHT22;1433;49.976;8.342;2024-01-16T09:22:12;0.40;1.00
2851;DHT22;1433;49.976;8.342;2024-01-16T09:24:38;0.40;1.00
2851;DHT22;1433;49.976;8.342;2024-01-16T09:27:05;0.40;1.00
2851;DHT22;1433;49.976;8.342;2024-01-16T09:29:32;0.40;1.00
2851;DHT22;1433;49.976;8.342;2024-01-16T09:31:59;0.50;1.00
2851;DHT22;1433;49.976;8.342;2024-01-16T09:34:26;0.50;1.00
2851;DHT22;1433;49.976;8.342;2024-01-16T09:36:52;0.50;99.90
2851;DHT22;1433;49.976;8.342;2024-01-16T09:39:19;0.50;99.90
2851;DHT22;1433;49.976;8.342;2024-01-16T09:41:45;0.50;99.90
2851;DHT22;1433;49.976;8.342;2024-01-16T09:44:11;0.60;1.00
2851;DHT22;1433;49.976;8.342;2024-01-16T09:46:38;0.60;1.00
2851;DHT22;1433;49.976;8.342;2024-01-16T09:49:06;0.70;1.00
2851;DHT22;1433;49.976;8.342;2024-01-16T09:51:33;0.70;1.00
2851;DHT22;1433;49.976;8.342;2024-01-16T09:53:59;0.80;1.00
2851;DHT22;1433;49.976;8.342;2024-01-16T09:56:25;0.80;1.00
2851;DHT22;1433;49.976;8.342;2024-01-16T09:58:55;0.90;1.00
2851;DHT22;1433;49.976;8.342;2024-01-16T10:01:23;0.90;1.00
2851;DHT22;1433;49.976;8.342;2024-01-16T10:03:49;1.00;99.90
2851;DHT22;1433;49.976;8.342;2024-01-16T10:06:17;1.00;99.90
2851;DHT22;1433;49.976;8.342;2024-01-16T10:08:46;1.10;99.90
2851;DHT22;1433;49.976;8.342;2024-01-16T10:11:12;1.10;1.00
2851;DHT22;1433;49.976;8.342;2024-01-16T10:13:40;1.20;1.00
2851;DHT22;1433;49.976;8.342;2024-01-16T10:16:09;1.30;1.00
2851;DHT22;1433;49.976;8.342;2024-01-16T10:18:35;1.40;1.00
2851;DHT22;1433;49.976;8.342;2024-01-16T10:21:04;1.50;99.90
2851;DHT22;1433;49.976;8.342;2024-01-16T10:23:31;1.60;26.50
2851;DHT22;1433;49.976;8.342;2024-01-16T10:26:09;1.70;94.00
2851;DHT22;1433;49.976;8.342;2024-01-16T10:28:38;1.90;1.00
2851;DHT22;1433;49.976;8.342;2024-01-16T10:31:09;2.10;1.00
2851;DHT22;1433;49.976;8.342;2024-01-16T10:33:36;2.30;99.90
2851;DHT22;1433;49.976;8.342;2024-01-16T10:36:16;2.10;1.00
2851;DHT22;1433;49.976;8.342;2024-01-16T10:38:45;2.30;99.90
2851;DHT22;1433;49.976;8.342;2024-01-16T10:41:14;2.50;1.00
2851;DHT22;1433;49.976;8.342;2024-01-16T10:43:41;2.30;99.90
2851;DHT22;1433;49.976;8.342;2024-01-16T10:46:12;2.20;1.00
2851;DHT22;1433;49.976;8.342;2024-01-16T10:48:38;2.20;99.90
2851;DHT22;1433;49.976;8.342;2024-01-16T10:51:06;2.10;99.90
2851;DHT22;1433;49.976;8.342;2024-01-16T10:53:33;2.10;1.00
2851;DHT22;1433;49.976;8.342;2024-01-16T10:56:00;2.00;99.90
2851;DHT22;1433;49.976;8.342;2024-01-16T10:58:29;1.90;1.00
2851;DHT22;1433;49.976;8.342;2024-01-16T11:01:01;2.00;1.00
2851;DHT22;1433;49.976;8.342;2024-01-16T11:03:48;2.00;1.00
2851;DHT22;1433;49.976;8.342;2024-01-16T11:06:17;2.00;1.00
2851;DHT22;1433;49.976;8.342;2024-01-16T11:08:47;2.10;1.00
2851;DHT22;1433;49.976;8.342;2024-01-16T11:11:14;2.10;99.90
2851;DHT22;1433;49.976;8.342;2024-01-16T11:13:41;2.20;1.00
2851;DHT22;1433;49.976;8.342;2024-01-16T11:16:12;2.20;1.00
2851;DHT22;1433;49.976;8.342;2024-01-16T11:18:39;2.40;1.00
2851;DHT22;1433;49.976;8.342;2024-01-16T11:21:14;2.30;99.90
2851;DHT22;1433;49.976;8.342;2024-01-16T11:23:40;2.40;99.90
2851;DHT22;1433;49.976;8.342;2024-01-16T11:26:29;2.70;99.90
2851;DHT22;1433;49.976;8.342;2024-01-16T11:28:58;3.10;99.90
2851;DHT22;1433;49.976;8.342;2024-01-16T11:31:33;3.70;1.00
2851;DHT22;1433;49.976;8.342;2024-01-16T11:34:04;4.30;99.90
2851;DHT22;1433;49.976;8.342;2024-01-16T11:39:17;4.60;1.00
2851;DHT22;1433;49.976;8.342;2024-01-16T11:47:07;4.70;1.00
2851;DHT22;1433;49.976;8.342;2024-01-16T11:49:36;5.00;1.00
2851;DHT22;1433;49.976;8.342;2024-01-16T11:52:02;4.90;1.00
2851;DHT22;1433;49.976;8.342;2024-01-16T11:54:28;4.50;1.00
2851;DHT22;1433;49.976;8.342;2024-01-16T11:57:09;4.20;1.00
2851;DHT22;1433;49.976;8.342;2024-01-16T12:02:21;4.20;1.00
2851;DHT22;1433;49.976;8.342;2024-01-16T12:04:55;4.50;1.00
2851;DHT22;1433;49.976;8.342;2024-01-16T12:07:23;4.70;1.00
2851;DHT22;1433;49.976;8.342;2024-01-16T12:09:49;5.40;1.00
2851;DHT22;1433;49.976;8.342;2024-01-16T12:12:15;5.80;1.00
2851;DHT22;1433;49.976;8.342;2024-01-16T12:14:50;5.70;1.00
2851;DHT22;1433;49.976;8.342;2024-01-16T12:17:14;5.80;1.00
2851;DHT22;1433;49.976;8.342;2024-01-16T12:19:41;6.30;1.00
2851;DHT22;1433;49.976;8.342;2024-01-16T12:22:09;6.60;1.00
2851;DHT22;1433;49.976;8.342;2024-01-16T12:24:37;6.90;1.00
2851;DHT22;1433;49.976;8.342;2024-01-16T12:27:04;6.50;1.00
2851;DHT22;1433;49.976;8.342;2024-01-16T12:29:30;5.80;99.90
2851;DHT22;1433;49.976;8.342;2024-01-16T12:32:10;5.10;99.90
2851;DHT22;1433;49.976;8.342;2024-01-16T12:34:45;4.80;99.90
2851;DHT22;1433;49.976;8.342;2024-01-16T12:37:11;4.70;99.90
2851;DHT22;1433;49.976;8.342;2024-01-16T12:39:39;4.80;99.90
2851;DHT22;1433;49.976;8.342;2024-01-16T12:42:08;4.80;99.90
2851;DHT22;1433;49.976;8.342;2024-01-16T12:44:36;4.60;99.90
2851;DHT22;1433;49.976;8.342;2024-01-16T12:47:03;4.40;99.90
2851;DHT22;1433;49.976;8.342;2024-01-16T12:49:29;4.20;99.90
2851;DHT22;1433;49.976;8.342;2024-01-16T12:52:14;4.10;99.90
2851;DHT22;1433;49.976;8.342;2024-01-16T12:54:40;4.10;99.90
2851;DHT22;1433;49.976;8.342;2024-01-16T12:57:07;4.10;99.90
2851;DHT22;1433;49.976;8.342;2024-01-16T12:59:35;4.50;99.90
2851;DHT22;1433;49.976;8.342;2024-01-16T13:02:01;5.10;99.90
2851;DHT22;1433;49.976;8.342;2024-01-16T13:04:27;5.60;99.90
2851;DHT22;1433;49.976;8.342;2024-01-16T13:07:02;5.90;1.00
2851;DHT22;1433;49.976;8.342;2024-01-16T13:09:28;6.10;1.00
2851;DHT22;1433;49.976;8.342;2024-01-16T13:11:55;5.90;1.00
2851;DHT22;1433;49.976;8.342;2024-01-16T13:14:22;5.80;1.00
2851;DHT22;1433;49.976;8.342;2024-01-16T13:16:49;5.90;1.00
2851;DHT22;1433;49.976;8.342;2024-01-16T13:19:19;6.40;1.00
2851;DHT22;1433;49.976;8.342;2024-01-16T13:21:45;6.70;1.00
2851;DHT22;1433;49.976;8.342;2024-01-16T13:24:12;6.20;1.00
2851;DHT22;1433;49.976;8.342;2024-01-16T13:26:42;5.70;99.90
2851;DHT22;1433;49.976;8.342;2024-01-16T13:29:09;5.40;99.90
2851;DHT22;1433;49.976;8.342;2024-01-16T13:31:35;5.20;99.90
2851;DHT22;1433;49.976;8.342;2024-01-16T13:34:01;4.90;99.90
2851;DHT22;1433;49.976;8.342;2024-01-16T13:36:27;5.10;99.90
2851;DHT22;1433;49.976;8.342;2024-01-16T13:38:55;5.70;99.90
2851;DHT22;1433;49.976;8.342;2024-01-16T13:41:21;5.80;99.90
2851;DHT22;1433;49.976;8.342;2024-01-16T13:43:47;6.30;99.90
2851;DHT22;1433;49.976;8.342;2024-01-16T13:46:17;6.10;99.90
2851;DHT22;1433;49.976;8.342;2024-01-16T13:48:45;5.60;99.90
2851;DHT22;1433;49.976;8.342;2024-01-16T13:51:12;5.10;99.90
2851;DHT22;1433;49.976;8.342;2024-01-16T13:53:38;4.80;99.90
2851;DHT22;1433;49.976;8.342;2024-01-16T13:56:04;4.40;99.90
2851;DHT22;1433;49.976;8.342;2024-01-16T13:58:31;4.10;99.90
2851;DHT22;1433;49.976;8.342;2024-01-16T14:00:57;4.00;99.90
2851;DHT22;1433;49.976;8.342;2024-01-16T14:03:24;4.10;1.00
2851;DHT22;1433;49.976;8.342;2024-01-16T14:05:50;4.30;1.00
2851;DHT22;1433;49.976;8.342;2024-01-16T14:08:16;4.40;99.90
2851;DHT22;1433;49.976;8.342;2024-01-16T14:10:42;4.50;99.90
2851;DHT22;1433;49.976;8.342;2024-01-16T14:13:08;4.40;99.90
2851;DHT22;1433;49.976;8.342;2024-01-16T14:15:34;4.30;1.00
2851;DHT22;1433;49.976;8.342;2024-01-16T14:18:02;4.20;1.00
2851;DHT22;1433;49.976;8.342;2024-01-16T14:20:29;4.00;99.90
2851;DHT22;1433;49.976;8.342;2024-01-16T14:22:55;3.80;1.00
2851;DHT22;1433;49.976;8.342;2024-01-16T14:25:22;3.70;99.90
2851;DHT22;1433;49.976;8.342;2024-01-16T14:27:57;3.40;1.00
2851;DHT22;1433;49.976;8.342;2024-01-16T14:30:28;3.10;1.00
2851;DHT22;1433;49.976;8.342;2024-01-16T14:32:55;2.90;1.00
2851;DHT22;1433;49.976;8.342;2024-01-16T14:35:22;2.70;1.00
2851;DHT22;1433;49.976;8.342;2024-01-16T14:37:50;2.70;1.00
2851;DHT22;1433;49.976;8.342;2024-01-16T14:40:16;2.50;1.00
2851;DHT22;1433;49.976;8.342;2024-01-16T14:42:53;2.40;1.00
2851;DHT22;1433;49.976;8.342;2024-01-16T14:45:20;2.30;1.00
2851;DHT22;1433;49.976;8.342;2024-01-16T14:47:47;2.40;1.00
2851;DHT22;1433;49.976;8.342;2024-01-16T14:50:15;2.40;1.00
2851;DHT22;1433;49.976;8.342;2024-01-16T14:52:48;2.30;1.00
2851;DHT22;1433;49.976;8.342;2024-01-16T14:55:15;2.40;1.00
2851;DHT22;1433;49.976;8.342;2024-01-16T14:57:41;2.30;1.00
2851;DHT22;1433;49.976;8.342;2024-01-16T15:00:10;2.40;1.00
2851;DHT22;1433;49.976;8.342;2024-01-16T15:02:44;2.30;1.00
2851;DHT22;1433;49.976;8.342;2024-01-16T15:05:10;2.30;1.00
2851;DHT22;1433;49.976;8.342;2024-01-16T15:07:38;2.20;1.00
2851;DHT22;1433;49.976;8.342;2024-01-16T15:10:05;2.10;1.00
2851;DHT22;1433;49.976;8.342;2024-01-16T15:12:33;2.10;1.00
2851;DHT22;1433;49.976;8.342;2024-01-16T15:14:59;2.10;1.00
2851;DHT22;1433;49.976;8.342;2024-01-16T15:17:25;2.10;1.00
2851;DHT22;1433;49.976;8.342;2024-01-16T15:19:53;2.10;1.00
2851;DHT22;1433;49.976;8.342;2024-01-16T15:22:19;2.00;1.00
2851;DHT22;1433;49.976;8.342;2024-01-16T15:24:46;2.00;1.00
2851;DHT22;1433;49.976;8.342;2024-01-16T15:27:12;1.90;1.00
2851;DHT22;1433;49.976;8.342;2024-01-16T15:29:38;1.80;1.00
2851;DHT22;1433;49.976;8.342;2024-01-16T15:32:05;1.80;1.00
2851;DHT22;1433;49.976;8.342;2024-01-16T15:34:31;1.80;1.00
2851;DHT22;1433;49.976;8.342;2024-01-16T15:36:58;1.80;1.00
2851;DHT22;1433;49.976;8.342;2024-01-16T15:39:24;1.80;1.00
2851;DHT22;1433;49.976;8.342;2024-01-16T15:41:50;1.80;1.00
2851;DHT22;1433;49.976;8.342;2024-01-16T15:44:17;1.70;1.00
2851;DHT22;1433;49.976;8.342;2024-01-16T15:47:02;1.60;1.00
2851;DHT22;1433;49.976;8.342;2024-01-16T15:49:30;1.50;1.00
2851;DHT22;1433;49.976;8.342;2024-01-16T15:51:57;1.40;1.00
2851;DHT22;1433;49.976;8.342;2024-01-16T15:54:29;1.30;1.00
2851;DHT22;1433;49.976;8.342;2024-01-16T15:56:57;1.30;1.00
2851;DHT22;1433;49.976;8.342;2024-01-16T15:59:24;1.20;1.00
2851;DHT22;1433;49.976;8.342;2024-01-16T16:01:51;1.10;1.00
2851;DHT22;1433;49.976;8.342;2024-01-16T16:04:17;0.90;1.10
2851;DHT22;1433;49.976;8.342;2024-01-16T16:06:43;0.80;99.90
2851;DHT22;1433;49.976;8.342;2024-01-16T16:09:11;0.70;99.90
2851;DHT22;1433;49.976;8.342;2024-01-16T16:11:38;0.60;99.90
2851;DHT22;1433;49.976;8.342;2024-01-16T16:14:16;0.50;1.00
2851;DHT22;1433;49.976;8.342;2024-01-16T16:16:35;0.50;1.00
2851;DHT22;1433;49.976;8.342;2024-01-16T16:19:03;0.40;1.00
2851;DHT22;1433;49.976;8.342;2024-01-16T16:21:32;0.40;1.00
2851;DHT22;1433;49.976;8.342;2024-01-16T16:23:59;0.40;1.00
2851;DHT22;1433;49.976;8.342;2024-01-16T16:26:39;0.50;1.00
2851;DHT22;1433;49.976;8.342;2024-01-16T16:29:09;0.50;1.00
2851;DHT22;1433;49.976;8.342;2024-01-16T16:31:36;0.60;1.00